Terri L. Brusco — WDC3034 — position and weather

sailwx.info

Track history (hours):
 
Tides and Currents Weather Stations Pressure Air Temp Water Temp Dewpoint Dewpoint Depression Visibility Wind Speed Wind Dir Waves Ship Positions

Terri L. Brusco

Owner: Brusco Tug & Barge, Inc., Longview, WA. More information available from US FCC via Universal Licensing System and Coast Guard Vessel Documentation Center.

Last reported at 2017-Aug-21 01:01 UTC. Time now 2017-Aug-21 00:59 UTC.
Position N 37°49' W 122°18'.

Length 21 m; draft 4 m.

Type: Tow > 200 m length. MMSI: 367001830.

Date/timePositionNaut miles runAvg speedWind from/ knotsBaromVisibWave heightAir tempDewpointWater temp
2017-Aug-21 01:01N 37°49' W 122°18'0 0.3
2017-Aug-21 00:30N 37°49' W 122°19'0 0.0
2017-Aug-21 00:00N 37°49' W 122°19'1 2.6
2017-Aug-20 23:30N 37°49' W 122°20'1 1.3
2017-Aug-20 23:01N 37°49' W 122°19'1 1.5
2017-Aug-20 22:30N 37°49' W 122°19'0 0.0
2017-Aug-20 22:00N 37°49' W 122°19'0 0.0
2017-Aug-20 21:30N 37°49' W 122°19'0 0.2
2017-Aug-20 21:00N 37°49' W 122°19'1 2.7
2017-Aug-20 20:30N 37°49' W 122°20'0 0.0
2017-Aug-20 20:00N 37°49' W 122°20'1 1.1
2017-Aug-20 19:31N 37°49' W 122°20'1 1.2
2017-Aug-20 19:00N 37°49' W 122°19'0 0.7
2017-Aug-20 18:30N 37°49' W 122°19'0 0.0
2017-Aug-20 18:00N 37°49' W 122°19'0 0.1
2017-Aug-20 17:31N 37°49' W 122°19'2 4.5
2017-Aug-20 17:00N 37°50' W 122°21'0 0.2
2017-Aug-20 16:30N 37°50' W 122°21'0 0.4
2017-Aug-20 16:00N 37°50' W 122°22'2 3.1
2017-Aug-20 15:30N 37°49' W 122°20'1 2.7
2017-Aug-20 15:00N 37°49' W 122°19'0 0.0
2017-Aug-20 14:30N 37°49' W 122°19'0 0.0
2017-Aug-20 14:00N 37°49' W 122°19'0 0.0
2017-Aug-20 13:31N 37°49' W 122°19'0 0.0
2017-Aug-20 13:00N 37°49' W 122°19'0 0.0
2017-Aug-20 12:31N 37°49' W 122°19'0 0.0
2017-Aug-20 12:01N 37°49' W 122°19'0 0.0
2017-Aug-20 11:30N 37°49' W 122°19'0 0.0
2017-Aug-20 11:00N 37°49' W 122°19'0 0.0
2017-Aug-20 10:30N 37°49' W 122°19'0 0.0
2017-Aug-20 10:00N 37°49' W 122°19'0 0.0
2017-Aug-20 09:31N 37°49' W 122°19'0 0.0
2017-Aug-20 09:01N 37°49' W 122°19'0 0.5
2017-Aug-20 08:30N 37°49' W 122°19'1 2.0
2017-Aug-20 08:00N 37°49' W 122°20'1 2.1
2017-Aug-20 07:30N 37°49' W 122°19'0 0.0
2017-Aug-20 07:00N 37°49' W 122°19'0 0.0
2017-Aug-20 06:31N 37°49' W 122°19'0 0.0
2017-Aug-20 06:01N 37°49' W 122°19'0 0.0
2017-Aug-20 05:30N 37°49' W 122°19'0 0.0
2017-Aug-20 05:01N 37°49' W 122°19'0 0.0
2017-Aug-20 04:30N 37°49' W 122°19'0 0.0
2017-Aug-20 04:00N 37°49' W 122°19'0 0.0
2017-Aug-20 03:30N 37°49' W 122°19'0 0.0
2017-Aug-20 03:00N 37°49' W 122°19'0 0.0
2017-Aug-20 02:31N 37°49' W 122°19'0 0.0
2017-Aug-20 02:00N 37°49' W 122°19'0 0.0
2017-Aug-20 01:30N 37°49' W 122°19'1 2.0
2017-Aug-20 01:01N 37°49' W 122°20'1 2.6
2017-Aug-20 00:31N 37°49' W 122°21'1 2.8
2017-Aug-20 00:00N 37°49' W 122°20'1 2.1
2017-Aug-19 23:31N 37°49' W 122°19'0 0.0
2017-Aug-19 23:00N 37°49' W 122°19'0 0.0
2017-Aug-19 22:30N 37°49' W 122°19'0 0.0
2017-Aug-19 22:00N 37°49' W 122°19'0 0.0
2017-Aug-19 21:30N 37°49' W 122°19'0 0.0
2017-Aug-19 21:00N 37°49' W 122°19'0 0.0
2017-Aug-19 20:30N 37°49' W 122°19'0 0.0
2017-Aug-19 20:00N 37°49' W 122°19'0 0.0
2017-Aug-19 19:30N 37°49' W 122°19'0 0.0
2017-Aug-19 19:00N 37°49' W 122°19'0 0.0
2017-Aug-19 18:30N 37°49' W 122°19'0 0.0
2017-Aug-19 18:00N 37°49' W 122°19'0 0.0
2017-Aug-19 17:30N 37°49' W 122°19'0 0.0
2017-Aug-19 17:00N 37°49' W 122°19'0 0.0
2017-Aug-19 16:30N 37°49' W 122°19'0 0.0
2017-Aug-19 16:00N 37°49' W 122°19'0 0.0
2017-Aug-19 15:30N 37°49' W 122°19'2 4.6
2017-Aug-19 15:00N 37°50' W 122°21'1 1.4
2017-Aug-19 14:00N 37°49' W 122°21'2 3.5
2017-Aug-19 13:30N 37°49' W 122°18'2 3.1
2017-Aug-19 13:00N 37°49' W 122°20'2 4.8
2017-Aug-19 12:30N 37°50' W 122°23'4 7.3
2017-Aug-19 12:00N 37°49' W 122°27'2 4.5
2017-Aug-19 11:31N 37°49' W 122°30'3 6.1
2017-Aug-19 11:00N 37°47' W 122°33'4 7.0
2017-Aug-19 10:30N 37°46' W 122°37'42 8.1
2017-Aug-19 05:21N 37°39' W 123°29'2 5.2
2017-Aug-19 05:00N 37°39' W 123°27'4 7.7
2017-Aug-19 04:30N 37°39' W 123°22'4 7.7
2017-Aug-19 04:00N 37°39' W 123°17'5 7.8
2017-Aug-19 03:25N 37°39' W 123°11'3 7.5
2017-Aug-19 03:00N 37°39' W 123°07'4 7.6
2017-Aug-19 02:27N 37°38' W 123°02'3 7.4
2017-Aug-19 02:00N 37°38' W 122°58'4 7.7
2017-Aug-19 01:30N 37°40' W 122°54'4 7.3
2017-Aug-19 01:00N 37°42' W 122°50'7 7.2
2017-Aug-19 00:03N 37°44' W 122°41'1 6.4
2017-Aug-18 23:57N 37°44' W 122°40'3 7.5
2017-Aug-18 23:30N 37°46' W 122°37'4 8.5
2017-Aug-18 23:00N 37°48' W 122°32'4 8.5
2017-Aug-18 22:30N 37°50' W 122°27'4 7.7
2017-Aug-18 22:00N 37°48' W 122°23'3 5.8
2017-Aug-18 21:30N 37°49' W 122°19'0 0.8
2017-Aug-18 21:00N 37°49' W 122°19'3 6.2
2017-Aug-18 20:30N 37°46' W 122°19'1 1.4
2017-Aug-18 20:01N 37°47' W 122°20'2 3.5
2017-Aug-18 19:30N 37°48' W 122°21'1 2.9
2017-Aug-18 19:00N 37°50' W 122°21'0 0.7
2017-Aug-18 18:30N 37°50' W 122°21'2 3.7
2017-Aug-18 18:00N 37°49' W 122°19'1 1.1
2017-Aug-18 17:30N 37°49' W 122°18'0 0.0
2017-Aug-18 17:00N 37°49' W 122°18'0 0.0
2017-Aug-18 16:30N 37°49' W 122°18'0 0.0
2017-Aug-18 16:00N 37°49' W 122°18'0 0.0
2017-Aug-18 15:30N 37°49' W 122°18'0 0.0
2017-Aug-18 15:01N 37°49' W 122°18'0 0.0
2017-Aug-18 14:30N 37°49' W 122°18'1 0.7
2017-Aug-18 13:30N 37°49' W 122°19'1 1.4
2017-Aug-18 13:00N 37°49' W 122°20'1 2.7
2017-Aug-18 12:31N 37°49' W 122°18'1 2.6
2017-Aug-18 12:01N 37°49' W 122°20'1 2.5
2017-Aug-18 11:30N 37°49' W 122°19'1 2.6
2017-Aug-18 11:00N 37°49' W 122°20'1 1.1
2017-Aug-18 10:30N 37°49' W 122°19'1 1.6
2017-Aug-18 10:00N 37°49' W 122°19'0 0.1
2017-Aug-18 09:31N 37°49' W 122°18'0 0.0
2017-Aug-18 09:00N 37°49' W 122°18'0 0.0
2017-Aug-18 08:30N 37°49' W 122°18'0 0.0
2017-Aug-18 08:01N 37°49' W 122°18'0 0.0
2017-Aug-18 07:30N 37°49' W 122°18'0 0.0
2017-Aug-18 07:01N 37°49' W 122°18'0 0.0
2017-Aug-18 06:30N 37°49' W 122°18'0 0.0
2017-Aug-18 06:00N 37°49' W 122°18'0 0.0
2017-Aug-18 05:31N 37°49' W 122°18'0 0.0
2017-Aug-18 05:00N 37°49' W 122°18'0 0.0
2017-Aug-18 04:30N 37°49' W 122°18'0 0.0
2017-Aug-18 04:00N 37°49' W 122°18'0 0.0
2017-Aug-18 03:30N 37°49' W 122°18'0 0.1
2017-Aug-18 03:00N 37°49' W 122°19'0 0.0
2017-Aug-18 02:30N 37°49' W 122°19'0 0.0
2017-Aug-18 02:01N 37°49' W 122°19'0 0.0
2017-Aug-18 01:30N 37°49' W 122°19'0 0.0
2017-Aug-18 01:00N 37°49' W 122°19'0 0.0
2017-Aug-18 00:30N 37°49' W 122°19'0 0.1
2017-Aug-18 00:01N 37°49' W 122°19'2 3.2
2017-Aug-17 23:30N 37°49' W 122°20'2 3.2
2017-Aug-17 23:00N 37°48' W 122°22'4 8.3
2017-Aug-17 22:30N 37°49' W 122°27'3 6.1
2017-Aug-17 22:00N 37°48' W 122°31'3 6.2
2017-Aug-17 21:30N 37°47' W 122°34'3 6.9
2017-Aug-17 21:00N 37°45' W 122°38'11 7.0
2017-Aug-17 19:29N 37°42' W 122°51'8 8.3
2017-Aug-17 18:30N 37°38' W 123°00'4 8.1
2017-Aug-17 18:00N 37°38' W 123°05'4 8.0
2017-Aug-17 17:29N 37°38' W 123°10'4 7.7
2017-Aug-17 16:59N 37°39' W 123°15'5 8.0
2017-Aug-17 16:19N 37°39' W 123°22'6 7.6
2017-Aug-17 15:33N 37°39' W 123°29'0 4.9
2017-Aug-17 15:30N 37°39' W 123°29'3 6.1
2017-Aug-17 15:00N 37°39' W 123°25'4 6.2
2017-Aug-17 14:21N 37°39' W 123°20'2 6.2
2017-Aug-17 13:57N 37°39' W 123°17'3 6.2
2017-Aug-17 13:30N 37°39' W 123°13'3 6.1
2017-Aug-17 13:00N 37°39' W 123°09'3 6.2
2017-Aug-17 12:29N 37°38' W 123°05'3 6.1
2017-Aug-17 11:59N 37°38' W 123°02'3 6.2
2017-Aug-17 11:30N 37°39' W 122°58'4 6.6
2017-Aug-17 10:55N 37°40' W 122°53'3 6.5
2017-Aug-17 10:30N 37°42' W 122°51'4 6.5
2017-Aug-17 09:54N 37°43' W 122°46'3 6.6
2017-Aug-17 09:24N 37°44' W 122°42'3 6.6
2017-Aug-17 09:00N 37°45' W 122°39'4 7.5
2017-Aug-17 08:30N 37°47' W 122°35'4 8.6
2017-Aug-17 08:01N 37°49' W 122°30'4 8.4
2017-Aug-17 07:31N 37°50' W 122°25'3 6.9
2017-Aug-17 07:01N 37°48' W 122°21'1 2.6
2017-Aug-17 06:30N 37°49' W 122°19'0 0.0
2017-Aug-17 06:01N 37°49' W 122°19'2 4.7
2017-Aug-17 05:31N 37°50' W 122°22'510.4
2017-Aug-17 05:00N 37°54' W 122°25'610.2
2017-Aug-17 04:28N 37°60' W 122°25'8 8.8
2017-Aug-17 03:30N 38°04' W 122°15'3 0.7
2017-Aug-16 22:52N 38°03' W 122°11'3 7.4
2017-Aug-16 22:25N 38°04' W 122°15'1 1.5
2017-Aug-16 21:24N 38°04' W 122°17'410.2
2017-Aug-16 20:59N 38°02' W 122°21'510.3
2017-Aug-16 20:27N 37°58' W 122°26'510.2
2017-Aug-16 20:00N 37°53' W 122°25'611.5
2017-Aug-16 19:30N 37°48' W 122°21'1 2.1
2017-Aug-16 19:01N 37°49' W 122°20'1 2.1
2017-Aug-16 18:31N 37°48' W 122°19'0 0.2
2017-Aug-16 18:01N 37°48' W 122°19'0 0.0
2017-Aug-16 17:31N 37°48' W 122°19'0 0.0
2017-Aug-16 17:01N 37°48' W 122°19'0 0.1
2017-Aug-16 16:31N 37°48' W 122°19'0 0.6
2017-Aug-16 16:01N 37°48' W 122°19'2 3.1
2017-Aug-16 15:30N 37°49' W 122°19'0 0.0
2017-Aug-16 15:00N 37°49' W 122°19'0 0.0
2017-Aug-16 14:31N 37°49' W 122°19'0 0.0
2017-Aug-16 14:01N 37°49' W 122°19'0 0.0
2017-Aug-16 13:31N 37°49' W 122°19'0 0.0
2017-Aug-16 13:00N 37°49' W 122°19'0 0.0
2017-Aug-16 12:31N 37°49' W 122°19'0 0.0
2017-Aug-16 12:01N 37°49' W 122°19'0 0.0
2017-Aug-16 11:30N 37°49' W 122°19'0 0.0
2017-Aug-16 11:00N 37°49' W 122°19'0 0.0
2017-Aug-16 10:31N 37°49' W 122°19'0 0.0
2017-Aug-16 10:01N 37°49' W 122°19'0 0.0
2017-Aug-16 09:31N 37°49' W 122°19'0 0.5
2017-Aug-16 09:01N 37°49' W 122°19'0 0.0
2017-Aug-16 08:31N 37°49' W 122°19'0 0.6
2017-Aug-16 08:00N 37°49' W 122°18'0 0.0
2017-Aug-16 07:31N 37°49' W 122°18'2 3.8
2017-Aug-16 07:00N 37°48' W 122°21'2 3.1
2017-Aug-16 06:31N 37°48' W 122°23'3 6.6
2017-Aug-16 06:00N 37°49' W 122°27'2 4.9
2017-Aug-16 05:31N 37°49' W 122°30'3 5.9
2017-Aug-16 05:00N 37°47' W 122°33'4 7.0
2017-Aug-16 04:30N 37°46' W 122°37'3 5.9
2017-Aug-16 03:58N 37°44' W 122°41'26 4.0
2017-Aug-15 21:18N 37°39' W 123°13'3 6.7
2017-Aug-15 20:53N 37°39' W 123°10'2 6.3
2017-Aug-15 20:30N 37°39' W 123°07'3 6.5
2017-Aug-15 20:01N 37°38' W 123°03'4 6.6
2017-Aug-15 19:28N 37°38' W 122°58'4 6.5
2017-Aug-15 18:55N 37°40' W 122°54'11 6.6
2017-Aug-15 17:19N 37°44' W 122°42'2 6.2
2017-Aug-15 17:00N 37°45' W 122°39'3 6.7
2017-Aug-15 16:30N 37°46' W 122°36'4 7.1
2017-Aug-15 16:00N 37°48' W 122°32'4 7.1
2017-Aug-15 15:30N 37°49' W 122°28'3 6.3
2017-Aug-15 15:01N 37°49' W 122°24'3 6.0
2017-Aug-15 14:31N 37°49' W 122°20'1 2.4
2017-Aug-15 14:00N 37°49' W 122°19'0 0.0
2017-Aug-15 13:30N 37°49' W 122°19'0 0.0
2017-Aug-15 13:00N 37°49' W 122°19'0 0.0
2017-Aug-15 12:31N 37°49' W 122°19'0 0.0
2017-Aug-15 12:01N 37°49' W 122°19'0 0.0
2017-Aug-15 11:31N 37°49' W 122°19'0 0.0
2017-Aug-15 11:00N 37°49' W 122°19'0 0.0
2017-Aug-15 10:30N 37°49' W 122°19'0 0.0
2017-Aug-15 10:01N 37°49' W 122°19'0 0.0
2017-Aug-15 09:30N 37°49' W 122°19'0 0.0
2017-Aug-15 09:00N 37°49' W 122°19'1 1.1
2017-Aug-15 08:30N 37°49' W 122°19'1 2.4
2017-Aug-15 08:01N 37°48' W 122°19'1 1.9
2017-Aug-15 07:30N 37°49' W 122°20'1 1.9
2017-Aug-15 07:00N 37°49' W 122°19'0 0.0
2017-Aug-15 06:31N 37°49' W 122°19'0 0.0
2017-Aug-15 06:00N 37°49' W 122°19'0 0.0
2017-Aug-15 05:31N 37°49' W 122°19'0 0.0
2017-Aug-15 05:01N 37°49' W 122°19'0 0.0
2017-Aug-15 04:30N 37°49' W 122°19'0 0.0
2017-Aug-15 04:00N 37°49' W 122°19'0 0.0
2017-Aug-15 03:31N 37°49' W 122°19'0 0.0
2017-Aug-15 03:01N 37°49' W 122°19'1 1.6
2017-Aug-15 02:30N 37°49' W 122°19'1 1.0
2017-Aug-15 02:01N 37°49' W 122°19'0 0.7
2017-Aug-15 01:31N 37°49' W 122°18'0 0.1
2017-Aug-15 01:01N 37°49' W 122°19'0 0.0
2017-Aug-15 00:31N 37°49' W 122°19'0 0.0
2017-Aug-15 00:01N 37°49' W 122°19'0 0.0
2017-Aug-14 23:31N 37°49' W 122°19'0 0.0
2017-Aug-14 23:00N 37°49' W 122°19'0 0.0
2017-Aug-14 22:31N 37°49' W 122°19'0 0.0
2017-Aug-14 22:01N 37°49' W 122°19'0 0.0
2017-Aug-14 21:31N 37°49' W 122°19'1 1.3
2017-Aug-14 21:01N 37°49' W 122°19'1 1.5
2017-Aug-14 20:30N 37°49' W 122°20'1 2.3
2017-Aug-14 20:00N 37°48' W 122°19'1 1.4
2017-Aug-14 19:31N 37°48' W 122°18'2 3.2
2017-Aug-14 19:01N 37°49' W 122°20'1 2.3
2017-Aug-14 18:31N 37°49' W 122°19'0 0.0
2017-Aug-14 18:01N 37°49' W 122°19'0 0.0
2017-Aug-14 17:31N 37°49' W 122°19'0 0.0
2017-Aug-14 17:01N 37°49' W 122°19'0 0.0
2017-Aug-14 16:31N 37°49' W 122°19'0 0.0
2017-Aug-14 16:01N 37°49' W 122°19'0 0.0
2017-Aug-14 15:31N 37°49' W 122°19'0 0.0
2017-Aug-14 15:00N 37°49' W 122°19'0 0.0
2017-Aug-14 14:30N 37°49' W 122°19'2 3.2
2017-Aug-14 14:01N 37°48' W 122°19'2 3.1
2017-Aug-14 13:31N 37°49' W 122°19'0 0.1
2017-Aug-14 13:00N 37°49' W 122°19'0 0.0
2017-Aug-14 12:31N 37°49' W 122°19'0 0.0
2017-Aug-14 12:00N 37°49' W 122°19'0 0.0
2017-Aug-14 11:31N 37°49' W 122°19'0 0.0
2017-Aug-14 11:01N 37°49' W 122°19'0 0.0
2017-Aug-14 10:31N 37°49' W 122°19'0 0.0
2017-Aug-14 10:01N 37°49' W 122°19'0 0.0
2017-Aug-14 09:31N 37°49' W 122°19'0 0.0
2017-Aug-14 09:00N 37°49' W 122°19'0 0.0
2017-Aug-14 08:30N 37°49' W 122°19'0 0.0
2017-Aug-14 08:00N 37°49' W 122°19'0 0.0
2017-Aug-14 07:31N 37°49' W 122°19'0 0.0
2017-Aug-14 07:01N 37°49' W 122°19'0 0.1
2017-Aug-14 06:30N 37°49' W 122°19'2 4.4
2017-Aug-14 06:00N 37°49' W 122°21'1 2.1
2017-Aug-14 05:31N 37°50' W 122°22'3 6.3
2017-Aug-14 05:01N 37°49' W 122°26'3 5.1
2017-Aug-14 04:30N 37°49' W 122°29'3 5.5
2017-Aug-14 04:00N 37°48' W 122°32'3 5.8
2017-Aug-14 03:30N 37°46' W 122°35'4 7.3
2017-Aug-14 03:00N 37°45' W 122°39'3 6.0
2017-Aug-14 02:29N 37°44' W 122°43'37 7.7
2017-Aug-13 21:44N 37°39' W 123°29'9 3.8
2017-Aug-13 19:30N 37°38' W 123°18'8 5.4
2017-Aug-13 18:01N 37°38' W 123°08'0 5.3
2017-Aug-13 18:00N 37°38' W 123°08'3 5.9
2017-Aug-13 17:30N 37°38' W 123°04'3 5.5
2017-Aug-13 17:00N 37°38' W 123°01'3 5.6
2017-Aug-13 16:30N 37°39' W 122°57'3 5.8
2017-Aug-13 16:00N 37°40' W 122°54'3 5.9
2017-Aug-13 15:30N 37°42' W 122°51'3 5.8
2017-Aug-13 14:58N 37°43' W 122°47'3 5.8
2017-Aug-13 14:29N 37°45' W 122°44'3 5.6
2017-Aug-13 14:00N 37°46' W 122°41'2 5.0
2017-Aug-13 13:30N 37°46' W 122°38'3 5.9
2017-Aug-13 13:00N 37°47' W 122°35'3 6.1
2017-Aug-13 12:30N 37°48' W 122°31'3 6.0
2017-Aug-13 12:00N 37°49' W 122°28'3 5.2
2017-Aug-13 11:30N 37°50' W 122°24'2 4.9
2017-Aug-13 11:01N 37°48' W 122°22'2 3.9
2017-Aug-13 10:30N 37°49' W 122°19'0 0.1
2017-Aug-13 10:01N 37°49' W 122°19'1 1.7
2017-Aug-13 09:30N 37°49' W 122°20'3 6.2
2017-Aug-13 09:00N 37°49' W 122°24'0 0.2
2017-Aug-13 08:30N 37°49' W 122°24'0 0.7
2017-Aug-13 08:01N 37°49' W 122°24'4 7.5
2017-Aug-13 07:30N 37°53' W 122°25'4 7.1
2017-Aug-13 07:00N 37°56' W 122°26'4 7.4
2017-Aug-13 06:30N 37°60' W 122°25'8 8.1
2017-Aug-13 05:31N 38°04' W 122°16'0 9.2
2017-Aug-13 05:30N 38°04' W 122°16'6 8.6
2017-Aug-13 04:51N 38°02' W 122°09'7 7.9
2017-Aug-13 03:59N 38°04' W 122°00'3 6.8
2017-Aug-13 03:30N 38°03' W 121°56'4 5.7
2017-Aug-13 02:47N 38°04' W 121°51'0 0.1
2017-Aug-13 02:28N 38°04' W 121°51'0 0.0
2017-Aug-13 02:00N 38°04' W 121°51'0 0.0
2017-Aug-13 01:30N 38°04' W 121°51'0 0.1
2017-Aug-13 00:49N 38°04' W 121°51'0 0.0
2017-Aug-13 00:14N 38°04' W 121°51'2 2.1
2017-Aug-12 23:17N 38°03' W 121°53'2 7.3
2017-Aug-12 22:58N 38°03' W 121°56'10 7.1
2017-Aug-12 21:37N 38°02' W 122°08'1 7.4
2017-Aug-12 21:28N 38°02' W 122°10'3 6.5
2017-Aug-12 21:00N 38°04' W 122°13'4 6.5
2017-Aug-12 20:24N 38°03' W 122°18'8 6.4
2017-Aug-12 19:10N 37°58' W 122°26'2 6.3
2017-Aug-12 18:56N 37°57' W 122°26'3 6.6
2017-Aug-12 18:30N 37°54' W 122°25'3 5.8
2017-Aug-12 18:00N 37°51' W 122°24'3 5.1
2017-Aug-12 17:30N 37°49' W 122°24'0 0.5
2017-Aug-12 17:00N 37°49' W 122°24'0 0.0
2017-Aug-12 16:30N 37°49' W 122°24'0 0.0
2017-Aug-12 16:00N 37°49' W 122°24'0 0.2
2017-Aug-12 15:30N 37°49' W 122°24'1 1.5
2017-Aug-12 15:00N 37°49' W 122°23'4 7.6
2017-Aug-12 14:30N 37°49' W 122°19'2 3.7
2017-Aug-12 14:01N 37°49' W 122°21'2 3.2
2017-Aug-12 13:30N 37°50' W 122°22'1 2.5
2017-Aug-12 13:01N 37°50' W 122°24'2 4.8
2017-Aug-12 12:31N 37°49' W 122°26'2 4.9
2017-Aug-12 12:00N 37°49' W 122°30'3 6.3
2017-Aug-12 11:30N 37°47' W 122°33'3 6.1
2017-Aug-12 11:00N 37°46' W 122°36'6 3.8
2017-Aug-12 09:33N 37°43' W 122°43'21 5.6
2017-Aug-12 05:43N 37°33' W 123°07'2 6.4
2017-Aug-12 05:29N 37°34' W 123°09'3 7.0
2017-Aug-12 05:00N 37°35' W 123°13'9 7.2
2017-Aug-12 03:45N 37°37' W 123°23'5 5.5
2017-Aug-12 02:56N 37°39' W 123°29'1 2.1
2017-Aug-12 02:30N 37°39' W 123°28'2 4.2
2017-Aug-12 02:00N 37°39' W 123°25'3 4.2
2017-Aug-12 01:18N 37°38' W 123°21'3 4.3
2017-Aug-12 00:30N 37°38' W 123°17'4 4.8
2017-Aug-11 23:46N 37°38' W 123°13'1 4.8
2017-Aug-11 23:28N 37°38' W 123°11'3 5.1
2017-Aug-11 22:52N 37°37' W 123°07'3 4.9
2017-Aug-11 22:15N 37°37' W 123°03'1 5.3
2017-Aug-11 22:00N 37°37' W 123°02'3 5.0
2017-Aug-11 21:21N 37°38' W 122°58'2 5.1
2017-Aug-11 21:00N 37°39' W 122°56'3 5.3
2017-Aug-11 20:25N 37°40' W 122°52'2 5.3
2017-Aug-11 20:00N 37°41' W 122°50'3 5.0
2017-Aug-11 19:22N 37°43' W 122°46'3 5.1
2017-Aug-11 18:43N 37°45' W 122°43'2 4.8
2017-Aug-11 18:15N 37°46' W 122°40'1 5.3
2017-Aug-11 17:59N 37°46' W 122°39'2 5.1
2017-Aug-11 17:30N 37°47' W 122°36'3 5.5
2017-Aug-11 17:00N 37°48' W 122°33'3 6.5
2017-Aug-11 16:30N 37°49' W 122°29'3 6.5
2017-Aug-11 16:00N 37°50' W 122°25'3 6.1
2017-Aug-11 15:31N 37°48' W 122°22'2 3.7
2017-Aug-11 15:01N 37°49' W 122°19'1 0.8
2017-Aug-11 14:00N 37°49' W 122°19'0 0.0
2017-Aug-11 13:31N 37°49' W 122°19'0 0.0
2017-Aug-11 13:01N 37°49' W 122°19'0 0.0
2017-Aug-11 12:31N 37°49' W 122°19'0 0.1
2017-Aug-11 12:01N 37°49' W 122°19'2 3.2
2017-Aug-11 11:31N 37°48' W 122°19'0 0.0
2017-Aug-11 11:01N 37°48' W 122°19'1 2.9
2017-Aug-11 10:30N 37°49' W 122°19'1 1.7
2017-Aug-11 10:01N 37°49' W 122°20'2 4.8
2017-Aug-11 09:30N 37°47' W 122°17'0 0.0
2017-Aug-11 09:01N 37°47' W 122°17'0 0.0
2017-Aug-11 08:30N 37°47' W 122°17'0 0.0
2017-Aug-11 08:01N 37°47' W 122°17'0 0.0
2017-Aug-11 07:30N 37°47' W 122°17'0 0.0
2017-Aug-11 07:00N 37°47' W 122°17'0 0.0
2017-Aug-11 06:31N 37°47' W 122°17'0 0.0
2017-Aug-11 06:00N 37°47' W 122°17'0 0.0
2017-Aug-11 05:30N 37°47' W 122°17'0 0.0
2017-Aug-11 05:00N 37°47' W 122°17'0 0.0
2017-Aug-11 04:31N 37°47' W 122°17'0 0.0
2017-Aug-11 04:01N 37°47' W 122°17'0 0.0
2017-Aug-11 03:31N 37°47' W 122°17'0 0.0
2017-Aug-11 03:00N 37°47' W 122°17'0 0.0
2017-Aug-11 02:30N 37°47' W 122°17'0 0.0
2017-Aug-11 02:01N 37°47' W 122°17'0 0.0
2017-Aug-11 01:30N 37°47' W 122°17'  
Track history (hours):
 
Tides and Currents Weather Stations Pressure Air Temp Water Temp Dewpoint Dewpoint Depression Visibility Wind Speed Wind Dir Waves Ship Positions

Terri L. Brusco

Owner: Brusco Tug & Barge, Inc., Longview, WA. More information available from US FCC via Universal Licensing System and Coast Guard Vessel Documentation Center.

Last reported at 2017-Aug-21 01:01 UTC. Time now 2017-Aug-21 00:59 UTC.
Position N 37°49' W 122°18'.

Length 21 m; draft 4 m.

Type: Tow > 200 m length. MMSI: 367001830.

Date/timePositionNaut miles runAvg speedWind from/ knotsBaromVisibWave heightAir tempDewpointWater temp
2017-Aug-21 01:01N 37°49' W 122°18'0 0.3
2017-Aug-21 00:30N 37°49' W 122°19'0 0.0
2017-Aug-21 00:00N 37°49' W 122°19'1 2.6
2017-Aug-20 23:30N 37°49' W 122°20'1 1.3
2017-Aug-20 23:01N 37°49' W 122°19'1 1.5
2017-Aug-20 22:30N 37°49' W 122°19'0 0.0
2017-Aug-20 22:00N 37°49' W 122°19'0 0.0
2017-Aug-20 21:30N 37°49' W 122°19'0 0.2
2017-Aug-20 21:00N 37°49' W 122°19'1 2.7
2017-Aug-20 20:30N 37°49' W 122°20'0 0.0
2017-Aug-20 20:00N 37°49' W 122°20'1 1.1
2017-Aug-20 19:31N 37°49' W 122°20'1 1.2
2017-Aug-20 19:00N 37°49' W 122°19'0 0.7
2017-Aug-20 18:30N 37°49' W 122°19'0 0.0
2017-Aug-20 18:00N 37°49' W 122°19'0 0.1
2017-Aug-20 17:31N 37°49' W 122°19'2 4.5
2017-Aug-20 17:00N 37°50' W 122°21'0 0.2
2017-Aug-20 16:30N 37°50' W 122°21'0 0.4
2017-Aug-20 16:00N 37°50' W 122°22'2 3.1
2017-Aug-20 15:30N 37°49' W 122°20'1 2.7
2017-Aug-20 15:00N 37°49' W 122°19'0 0.0
2017-Aug-20 14:30N 37°49' W 122°19'0 0.0
2017-Aug-20 14:00N 37°49' W 122°19'0 0.0
2017-Aug-20 13:31N 37°49' W 122°19'0 0.0
2017-Aug-20 13:00N 37°49' W 122°19'0 0.0
2017-Aug-20 12:31N 37°49' W 122°19'0 0.0
2017-Aug-20 12:01N 37°49' W 122°19'0 0.0
2017-Aug-20 11:30N 37°49' W 122°19'0 0.0
2017-Aug-20 11:00N 37°49' W 122°19'0 0.0
2017-Aug-20 10:30N 37°49' W 122°19'0 0.0
2017-Aug-20 10:00N 37°49' W 122°19'0 0.0
2017-Aug-20 09:31N 37°49' W 122°19'0 0.0
2017-Aug-20 09:01N 37°49' W 122°19'0 0.5
2017-Aug-20 08:30N 37°49' W 122°19'1 2.0
2017-Aug-20 08:00N 37°49' W 122°20'1 2.1
2017-Aug-20 07:30N 37°49' W 122°19'0 0.0
2017-Aug-20 07:00N 37°49' W 122°19'0 0.0
2017-Aug-20 06:31N 37°49' W 122°19'0 0.0
2017-Aug-20 06:01N 37°49' W 122°19'0 0.0
2017-Aug-20 05:30N 37°49' W 122°19'0 0.0
2017-Aug-20 05:01N 37°49' W 122°19'0 0.0
2017-Aug-20 04:30N 37°49' W 122°19'0 0.0
2017-Aug-20 04:00N 37°49' W 122°19'0 0.0
2017-Aug-20 03:30N 37°49' W 122°19'0 0.0
2017-Aug-20 03:00N 37°49' W 122°19'0 0.0
2017-Aug-20 02:31N 37°49' W 122°19'0 0.0
2017-Aug-20 02:00N 37°49' W 122°19'0 0.0
2017-Aug-20 01:30N 37°49' W 122°19'1 2.0
2017-Aug-20 01:01N 37°49' W 122°20'1 2.6
2017-Aug-20 00:31N 37°49' W 122°21'1 2.8
2017-Aug-20 00:00N 37°49' W 122°20'1 2.1
2017-Aug-19 23:31N 37°49' W 122°19'0 0.0
2017-Aug-19 23:00N 37°49' W 122°19'0 0.0
2017-Aug-19 22:30N 37°49' W 122°19'0 0.0
2017-Aug-19 22:00N 37°49' W 122°19'0 0.0
2017-Aug-19 21:30N 37°49' W 122°19'0 0.0
2017-Aug-19 21:00N 37°49' W 122°19'0 0.0
2017-Aug-19 20:30N 37°49' W 122°19'0 0.0
2017-Aug-19 20:00N 37°49' W 122°19'0 0.0
2017-Aug-19 19:30N 37°49' W 122°19'0 0.0
2017-Aug-19 19:00N 37°49' W 122°19'0 0.0
2017-Aug-19 18:30N 37°49' W 122°19'0 0.0
2017-Aug-19 18:00N 37°49' W 122°19'0 0.0
2017-Aug-19 17:30N 37°49' W 122°19'0 0.0
2017-Aug-19 17:00N 37°49' W 122°19'0 0.0
2017-Aug-19 16:30N 37°49' W 122°19'0 0.0
2017-Aug-19 16:00N 37°49' W 122°19'0 0.0
2017-Aug-19 15:30N 37°49' W 122°19'2 4.6
2017-Aug-19 15:00N 37°50' W 122°21'1 1.4
2017-Aug-19 14:00N 37°49' W 122°21'2 3.5
2017-Aug-19 13:30N 37°49' W 122°18'2 3.1
2017-Aug-19 13:00N 37°49' W 122°20'2 4.8
2017-Aug-19 12:30N 37°50' W 122°23'4 7.3
2017-Aug-19 12:00N 37°49' W 122°27'2 4.5
2017-Aug-19 11:31N 37°49' W 122°30'3 6.1
2017-Aug-19 11:00N 37°47' W 122°33'4 7.0
2017-Aug-19 10:30N 37°46' W 122°37'42 8.1
2017-Aug-19 05:21N 37°39' W 123°29'2 5.2
2017-Aug-19 05:00N 37°39' W 123°27'4 7.7
2017-Aug-19 04:30N 37°39' W 123°22'4 7.7
2017-Aug-19 04:00N 37°39' W 123°17'5 7.8
2017-Aug-19 03:25N 37°39' W 123°11'3 7.5
2017-Aug-19 03:00N 37°39' W 123°07'4 7.6
2017-Aug-19 02:27N 37°38' W 123°02'3 7.4
2017-Aug-19 02:00N 37°38' W 122°58'4 7.7
2017-Aug-19 01:30N 37°40' W 122°54'4 7.3
2017-Aug-19 01:00N 37°42' W 122°50'7 7.2
2017-Aug-19 00:03N 37°44' W 122°41'1 6.4
2017-Aug-18 23:57N 37°44' W 122°40'3 7.5
2017-Aug-18 23:30N 37°46' W 122°37'4 8.5
2017-Aug-18 23:00N 37°48' W 122°32'4 8.5
2017-Aug-18 22:30N 37°50' W 122°27'4 7.7
2017-Aug-18 22:00N 37°48' W 122°23'3 5.8
2017-Aug-18 21:30N 37°49' W 122°19'0 0.8
2017-Aug-18 21:00N 37°49' W 122°19'3 6.2
2017-Aug-18 20:30N 37°46' W 122°19'1 1.4
2017-Aug-18 20:01N 37°47' W 122°20'2 3.5
2017-Aug-18 19:30N 37°48' W 122°21'1 2.9
2017-Aug-18 19:00N 37°50' W 122°21'0 0.7
2017-Aug-18 18:30N 37°50' W 122°21'2 3.7
2017-Aug-18 18:00N 37°49' W 122°19'1 1.1
2017-Aug-18 17:30N 37°49' W 122°18'0 0.0
2017-Aug-18 17:00N 37°49' W 122°18'0 0.0
2017-Aug-18 16:30N 37°49' W 122°18'0 0.0
2017-Aug-18 16:00N 37°49' W 122°18'0 0.0
2017-Aug-18 15:30N 37°49' W 122°18'0 0.0
2017-Aug-18 15:01N 37°49' W 122°18'0 0.0
2017-Aug-18 14:30N 37°49' W 122°18'1 0.7
2017-Aug-18 13:30N 37°49' W 122°19'1 1.4
2017-Aug-18 13:00N 37°49' W 122°20'1 2.7
2017-Aug-18 12:31N 37°49' W 122°18'1 2.6
2017-Aug-18 12:01N 37°49' W 122°20'1 2.5
2017-Aug-18 11:30N 37°49' W 122°19'1 2.6
2017-Aug-18 11:00N 37°49' W 122°20'1 1.1
2017-Aug-18 10:30N 37°49' W 122°19'1 1.6
2017-Aug-18 10:00N 37°49' W 122°19'0 0.1
2017-Aug-18 09:31N 37°49' W 122°18'0 0.0
2017-Aug-18 09:00N 37°49' W 122°18'0 0.0
2017-Aug-18 08:30N 37°49' W 122°18'0 0.0
2017-Aug-18 08:01N 37°49' W 122°18'0 0.0
2017-Aug-18 07:30N 37°49' W 122°18'0 0.0
2017-Aug-18 07:01N 37°49' W 122°18'0 0.0
2017-Aug-18 06:30N 37°49' W 122°18'0 0.0
2017-Aug-18 06:00N 37°49' W 122°18'0 0.0
2017-Aug-18 05:31N 37°49' W 122°18'0 0.0
2017-Aug-18 05:00N 37°49' W 122°18'0 0.0
2017-Aug-18 04:30N 37°49' W 122°18'0 0.0
2017-Aug-18 04:00N 37°49' W 122°18'0 0.0
2017-Aug-18 03:30N 37°49' W 122°18'0 0.1
2017-Aug-18 03:00N 37°49' W 122°19'0 0.0
2017-Aug-18 02:30N 37°49' W 122°19'0 0.0
2017-Aug-18 02:01N 37°49' W 122°19'0 0.0
2017-Aug-18 01:30N 37°49' W 122°19'0 0.0
2017-Aug-18 01:00N 37°49' W 122°19'0 0.0
2017-Aug-18 00:30N 37°49' W 122°19'0 0.1
2017-Aug-18 00:01N 37°49' W 122°19'2 3.2
2017-Aug-17 23:30N 37°49' W 122°20'2 3.2
2017-Aug-17 23:00N 37°48' W 122°22'4 8.3
2017-Aug-17 22:30N 37°49' W 122°27'3 6.1
2017-Aug-17 22:00N 37°48' W 122°31'3 6.2
2017-Aug-17 21:30N 37°47' W 122°34'3 6.9
2017-Aug-17 21:00N 37°45' W 122°38'11 7.0
2017-Aug-17 19:29N 37°42' W 122°51'8 8.3
2017-Aug-17 18:30N 37°38' W 123°00'4 8.1
2017-Aug-17 18:00N 37°38' W 123°05'4 8.0
2017-Aug-17 17:29N 37°38' W 123°10'4 7.7
2017-Aug-17 16:59N 37°39' W 123°15'5 8.0
2017-Aug-17 16:19N 37°39' W 123°22'6 7.6
2017-Aug-17 15:33N 37°39' W 123°29'0 4.9
2017-Aug-17 15:30N 37°39' W 123°29'3 6.1
2017-Aug-17 15:00N 37°39' W 123°25'4 6.2
2017-Aug-17 14:21N 37°39' W 123°20'2 6.2
2017-Aug-17 13:57N 37°39' W 123°17'3 6.2
2017-Aug-17 13:30N 37°39' W 123°13'3 6.1
2017-Aug-17 13:00N 37°39' W 123°09'3 6.2
2017-Aug-17 12:29N 37°38' W 123°05'3 6.1
2017-Aug-17 11:59N 37°38' W 123°02'3 6.2
2017-Aug-17 11:30N 37°39' W 122°58'4 6.6
2017-Aug-17 10:55N 37°40' W 122°53'3 6.5
2017-Aug-17 10:30N 37°42' W 122°51'4 6.5
2017-Aug-17 09:54N 37°43' W 122°46'3 6.6
2017-Aug-17 09:24N 37°44' W 122°42'3 6.6
2017-Aug-17 09:00N 37°45' W 122°39'4 7.5
2017-Aug-17 08:30N 37°47' W 122°35'4 8.6
2017-Aug-17 08:01N 37°49' W 122°30'4 8.4
2017-Aug-17 07:31N 37°50' W 122°25'3 6.9
2017-Aug-17 07:01N 37°48' W 122°21'1 2.6
2017-Aug-17 06:30N 37°49' W 122°19'0 0.0
2017-Aug-17 06:01N 37°49' W 122°19'2 4.7
2017-Aug-17 05:31N 37°50' W 122°22'510.4
2017-Aug-17 05:00N 37°54' W 122°25'610.2
2017-Aug-17 04:28N 37°60' W 122°25'8 8.8
2017-Aug-17 03:30N 38°04' W 122°15'3 0.7
2017-Aug-16 22:52N 38°03' W 122°11'3 7.4
2017-Aug-16 22:25N 38°04' W 122°15'1 1.5
2017-Aug-16 21:24N 38°04' W 122°17'410.2
2017-Aug-16 20:59N 38°02' W 122°21'510.3
2017-Aug-16 20:27N 37°58' W 122°26'510.2
2017-Aug-16 20:00N 37°53' W 122°25'611.5
2017-Aug-16 19:30N 37°48' W 122°21'1 2.1
2017-Aug-16 19:01N 37°49' W 122°20'1 2.1
2017-Aug-16 18:31N 37°48' W 122°19'0 0.2
2017-Aug-16 18:01N 37°48' W 122°19'0 0.0
2017-Aug-16 17:31N 37°48' W 122°19'0 0.0
2017-Aug-16 17:01N 37°48' W 122°19'0 0.1
2017-Aug-16 16:31N 37°48' W 122°19'0 0.6
2017-Aug-16 16:01N 37°48' W 122°19'2 3.1
2017-Aug-16 15:30N 37°49' W 122°19'0 0.0
2017-Aug-16 15:00N 37°49' W 122°19'0 0.0
2017-Aug-16 14:31N 37°49' W 122°19'0 0.0
2017-Aug-16 14:01N 37°49' W 122°19'0 0.0
2017-Aug-16 13:31N 37°49' W 122°19'0 0.0
2017-Aug-16 13:00N 37°49' W 122°19'0 0.0
2017-Aug-16 12:31N 37°49' W 122°19'0 0.0
2017-Aug-16 12:01N 37°49' W 122°19'0 0.0
2017-Aug-16 11:30N 37°49' W 122°19'0 0.0
2017-Aug-16 11:00N 37°49' W 122°19'0 0.0
2017-Aug-16 10:31N 37°49' W 122°19'0 0.0
2017-Aug-16 10:01N 37°49' W 122°19'0 0.0
2017-Aug-16 09:31N 37°49' W 122°19'0 0.5
2017-Aug-16 09:01N 37°49' W 122°19'0 0.0
2017-Aug-16 08:31N 37°49' W 122°19'0 0.6
2017-Aug-16 08:00N 37°49' W 122°18'0 0.0
2017-Aug-16 07:31N 37°49' W 122°18'2 3.8
2017-Aug-16 07:00N 37°48' W 122°21'2 3.1
2017-Aug-16 06:31N 37°48' W 122°23'3 6.6
2017-Aug-16 06:00N 37°49' W 122°27'2 4.9
2017-Aug-16 05:31N 37°49' W 122°30'3 5.9
2017-Aug-16 05:00N 37°47' W 122°33'4 7.0
2017-Aug-16 04:30N 37°46' W 122°37'3 5.9
2017-Aug-16 03:58N 37°44' W 122°41'26 4.0
2017-Aug-15 21:18N 37°39' W 123°13'3 6.7
2017-Aug-15 20:53N 37°39' W 123°10'2 6.3
2017-Aug-15 20:30N 37°39' W 123°07'3 6.5
2017-Aug-15 20:01N 37°38' W 123°03'4 6.6
2017-Aug-15 19:28N 37°38' W 122°58'4 6.5
2017-Aug-15 18:55N 37°40' W 122°54'11 6.6
2017-Aug-15 17:19N 37°44' W 122°42'2 6.2
2017-Aug-15 17:00N 37°45' W 122°39'3 6.7
2017-Aug-15 16:30N 37°46' W 122°36'4 7.1
2017-Aug-15 16:00N 37°48' W 122°32'4 7.1
2017-Aug-15 15:30N 37°49' W 122°28'3 6.3
2017-Aug-15 15:01N 37°49' W 122°24'3 6.0
2017-Aug-15 14:31N 37°49' W 122°20'1 2.4
2017-Aug-15 14:00N 37°49' W 122°19'0 0.0
2017-Aug-15 13:30N 37°49' W 122°19'0 0.0
2017-Aug-15 13:00N 37°49' W 122°19'0 0.0
2017-Aug-15 12:31N 37°49' W 122°19'0 0.0
2017-Aug-15 12:01N 37°49' W 122°19'0 0.0
2017-Aug-15 11:31N 37°49' W 122°19'0 0.0
2017-Aug-15 11:00N 37°49' W 122°19'0 0.0
2017-Aug-15 10:30N 37°49' W 122°19'0 0.0
2017-Aug-15 10:01N 37°49' W 122°19'0 0.0
2017-Aug-15 09:30N 37°49' W 122°19'0 0.0
2017-Aug-15 09:00N 37°49' W 122°19'1 1.1
2017-Aug-15 08:30N 37°49' W 122°19'1 2.4
2017-Aug-15 08:01N 37°48' W 122°19'1 1.9
2017-Aug-15 07:30N 37°49' W 122°20'1 1.9
2017-Aug-15 07:00N 37°49' W 122°19'0 0.0
2017-Aug-15 06:31N 37°49' W 122°19'0 0.0
2017-Aug-15 06:00N 37°49' W 122°19'0 0.0
2017-Aug-15 05:31N 37°49' W 122°19'0 0.0
2017-Aug-15 05:01N 37°49' W 122°19'0 0.0
2017-Aug-15 04:30N 37°49' W 122°19'0 0.0
2017-Aug-15 04:00N 37°49' W 122°19'0 0.0
2017-Aug-15 03:31N 37°49' W 122°19'0 0.0
2017-Aug-15 03:01N 37°49' W 122°19'1 1.6
2017-Aug-15 02:30N 37°49' W 122°19'1 1.0
2017-Aug-15 02:01N 37°49' W 122°19'0 0.7
2017-Aug-15 01:31N 37°49' W 122°18'0 0.1
2017-Aug-15 01:01N 37°49' W 122°19'0 0.0
2017-Aug-15 00:31N 37°49' W 122°19'0 0.0
2017-Aug-15 00:01N 37°49' W 122°19'0 0.0
2017-Aug-14 23:31N 37°49' W 122°19'0 0.0
2017-Aug-14 23:00N 37°49' W 122°19'0 0.0
2017-Aug-14 22:31N 37°49' W 122°19'0 0.0
2017-Aug-14 22:01N 37°49' W 122°19'0 0.0
2017-Aug-14 21:31N 37°49' W 122°19'1 1.3
2017-Aug-14 21:01N 37°49' W 122°19'1 1.5
2017-Aug-14 20:30N 37°49' W 122°20'1 2.3
2017-Aug-14 20:00N 37°48' W 122°19'1 1.4
2017-Aug-14 19:31N 37°48' W 122°18'2 3.2
2017-Aug-14 19:01N 37°49' W 122°20'1 2.3
2017-Aug-14 18:31N 37°49' W 122°19'0 0.0
2017-Aug-14 18:01N 37°49' W 122°19'0 0.0
2017-Aug-14 17:31N 37°49' W 122°19'0 0.0
2017-Aug-14 17:01N 37°49' W 122°19'0 0.0
2017-Aug-14 16:31N 37°49' W 122°19'0 0.0
2017-Aug-14 16:01N 37°49' W 122°19'0 0.0
2017-Aug-14 15:31N 37°49' W 122°19'0 0.0
2017-Aug-14 15:00N 37°49' W 122°19'0 0.0
2017-Aug-14 14:30N 37°49' W 122°19'2 3.2
2017-Aug-14 14:01N 37°48' W 122°19'2 3.1
2017-Aug-14 13:31N 37°49' W 122°19'0 0.1
2017-Aug-14 13:00N 37°49' W 122°19'0 0.0
2017-Aug-14 12:31N 37°49' W 122°19'0 0.0
2017-Aug-14 12:00N 37°49' W 122°19'0 0.0
2017-Aug-14 11:31N 37°49' W 122°19'0 0.0
2017-Aug-14 11:01N 37°49' W 122°19'0 0.0
2017-Aug-14 10:31N 37°49' W 122°19'0 0.0
2017-Aug-14 10:01N 37°49' W 122°19'0 0.0
2017-Aug-14 09:31N 37°49' W 122°19'0 0.0
2017-Aug-14 09:00N 37°49' W 122°19'0 0.0
2017-Aug-14 08:30N 37°49' W 122°19'0 0.0
2017-Aug-14 08:00N 37°49' W 122°19'0 0.0
2017-Aug-14 07:31N 37°49' W 122°19'0 0.0
2017-Aug-14 07:01N 37°49' W 122°19'0 0.1
2017-Aug-14 06:30N 37°49' W 122°19'2 4.4
2017-Aug-14 06:00N 37°49' W 122°21'1 2.1
2017-Aug-14 05:31N 37°50' W 122°22'3 6.3
2017-Aug-14 05:01N 37°49' W 122°26'3 5.1
2017-Aug-14 04:30N 37°49' W 122°29'3 5.5
2017-Aug-14 04:00N 37°48' W 122°32'3 5.8
2017-Aug-14 03:30N 37°46' W 122°35'4 7.3
2017-Aug-14 03:00N 37°45' W 122°39'3 6.0
2017-Aug-14 02:29N 37°44' W 122°43'37 7.7
2017-Aug-13 21:44N 37°39' W 123°29'9 3.8
2017-Aug-13 19:30N 37°38' W 123°18'8 5.4
2017-Aug-13 18:01N 37°38' W 123°08'0 5.3
2017-Aug-13 18:00N 37°38' W 123°08'3 5.9
2017-Aug-13 17:30N 37°38' W 123°04'3 5.5
2017-Aug-13 17:00N 37°38' W 123°01'3 5.6
2017-Aug-13 16:30N 37°39' W 122°57'3 5.8
2017-Aug-13 16:00N 37°40' W 122°54'3 5.9
2017-Aug-13 15:30N 37°42' W 122°51'3 5.8
2017-Aug-13 14:58N 37°43' W 122°47'3 5.8
2017-Aug-13 14:29N 37°45' W 122°44'3 5.6
2017-Aug-13 14:00N 37°46' W 122°41'2 5.0
2017-Aug-13 13:30N 37°46' W 122°38'3 5.9
2017-Aug-13 13:00N 37°47' W 122°35'3 6.1
2017-Aug-13 12:30N 37°48' W 122°31'3 6.0
2017-Aug-13 12:00N 37°49' W 122°28'3 5.2
2017-Aug-13 11:30N 37°50' W 122°24'2 4.9
2017-Aug-13 11:01N 37°48' W 122°22'2 3.9
2017-Aug-13 10:30N 37°49' W 122°19'0 0.1
2017-Aug-13 10:01N 37°49' W 122°19'1 1.7
2017-Aug-13 09:30N 37°49' W 122°20'3 6.2
2017-Aug-13 09:00N 37°49' W 122°24'0 0.2
2017-Aug-13 08:30N 37°49' W 122°24'0 0.7
2017-Aug-13 08:01N 37°49' W 122°24'4 7.5
2017-Aug-13 07:30N 37°53' W 122°25'4 7.1
2017-Aug-13 07:00N 37°56' W 122°26'4 7.4
2017-Aug-13 06:30N 37°60' W 122°25'8 8.1
2017-Aug-13 05:31N 38°04' W 122°16'0 9.2
2017-Aug-13 05:30N 38°04' W 122°16'6 8.6
2017-Aug-13 04:51N 38°02' W 122°09'7 7.9
2017-Aug-13 03:59N 38°04' W 122°00'3 6.8
2017-Aug-13 03:30N 38°03' W 121°56'4 5.7
2017-Aug-13 02:47N 38°04' W 121°51'0 0.1
2017-Aug-13 02:28N 38°04' W 121°51'0 0.0
2017-Aug-13 02:00N 38°04' W 121°51'0 0.0
2017-Aug-13 01:30N 38°04' W 121°51'0 0.1
2017-Aug-13 00:49N 38°04' W 121°51'0 0.0
2017-Aug-13 00:14N 38°04' W 121°51'2 2.1
2017-Aug-12 23:17N 38°03' W 121°53'2 7.3
2017-Aug-12 22:58N 38°03' W 121°56'10 7.1
2017-Aug-12 21:37N 38°02' W 122°08'1 7.4
2017-Aug-12 21:28N 38°02' W 122°10'3 6.5
2017-Aug-12 21:00N 38°04' W 122°13'4 6.5
2017-Aug-12 20:24N 38°03' W 122°18'8 6.4
2017-Aug-12 19:10N 37°58' W 122°26'2 6.3
2017-Aug-12 18:56N 37°57' W 122°26'3 6.6
2017-Aug-12 18:30N 37°54' W 122°25'3 5.8
2017-Aug-12 18:00N 37°51' W 122°24'3 5.1
2017-Aug-12 17:30N 37°49' W 122°24'0 0.5
2017-Aug-12 17:00N 37°49' W 122°24'0 0.0
2017-Aug-12 16:30N 37°49' W 122°24'0 0.0
2017-Aug-12 16:00N 37°49' W 122°24'0 0.2
2017-Aug-12 15:30N 37°49' W 122°24'1 1.5
2017-Aug-12 15:00N 37°49' W 122°23'4 7.6
2017-Aug-12 14:30N 37°49' W 122°19'2 3.7
2017-Aug-12 14:01N 37°49' W 122°21'2 3.2
2017-Aug-12 13:30N 37°50' W 122°22'1 2.5
2017-Aug-12 13:01N 37°50' W 122°24'2 4.8
2017-Aug-12 12:31N 37°49' W 122°26'2 4.9
2017-Aug-12 12:00N 37°49' W 122°30'3 6.3
2017-Aug-12 11:30N 37°47' W 122°33'3 6.1
2017-Aug-12 11:00N 37°46' W 122°36'6 3.8
2017-Aug-12 09:33N 37°43' W 122°43'21 5.6
2017-Aug-12 05:43N 37°33' W 123°07'2 6.4
2017-Aug-12 05:29N 37°34' W 123°09'3 7.0
2017-Aug-12 05:00N 37°35' W 123°13'9 7.2
2017-Aug-12 03:45N 37°37' W 123°23'5 5.5
2017-Aug-12 02:56N 37°39' W 123°29'1 2.1
2017-Aug-12 02:30N 37°39' W 123°28'2 4.2
2017-Aug-12 02:00N 37°39' W 123°25'3 4.2
2017-Aug-12 01:18N 37°38' W 123°21'3 4.3
2017-Aug-12 00:30N 37°38' W 123°17'4 4.8
2017-Aug-11 23:46N 37°38' W 123°13'1 4.8
2017-Aug-11 23:28N 37°38' W 123°11'3 5.1
2017-Aug-11 22:52N 37°37' W 123°07'3 4.9
2017-Aug-11 22:15N 37°37' W 123°03'1 5.3
2017-Aug-11 22:00N 37°37' W 123°02'3 5.0
2017-Aug-11 21:21N 37°38' W 122°58'2 5.1
2017-Aug-11 21:00N 37°39' W 122°56'3 5.3
2017-Aug-11 20:25N 37°40' W 122°52'2 5.3
2017-Aug-11 20:00N 37°41' W 122°50'3 5.0
2017-Aug-11 19:22N 37°43' W 122°46'3 5.1
2017-Aug-11 18:43N 37°45' W 122°43'2 4.8
2017-Aug-11 18:15N 37°46' W 122°40'1 5.3
2017-Aug-11 17:59N 37°46' W 122°39'2 5.1
2017-Aug-11 17:30N 37°47' W 122°36'3 5.5
2017-Aug-11 17:00N 37°48' W 122°33'3 6.5
2017-Aug-11 16:30N 37°49' W 122°29'3 6.5
2017-Aug-11 16:00N 37°50' W 122°25'3 6.1
2017-Aug-11 15:31N 37°48' W 122°22'2 3.7
2017-Aug-11 15:01N 37°49' W 122°19'1 0.8
2017-Aug-11 14:00N 37°49' W 122°19'0 0.0
2017-Aug-11 13:31N 37°49' W 122°19'0 0.0
2017-Aug-11 13:01N 37°49' W 122°19'0 0.0
2017-Aug-11 12:31N 37°49' W 122°19'0 0.1
2017-Aug-11 12:01N 37°49' W 122°19'2 3.2
2017-Aug-11 11:31N 37°48' W 122°19'0 0.0
2017-Aug-11 11:01N 37°48' W 122°19'1 2.9
2017-Aug-11 10:30N 37°49' W 122°19'1 1.7
2017-Aug-11 10:01N 37°49' W 122°20'2 4.8
2017-Aug-11 09:30N 37°47' W 122°17'0 0.0
2017-Aug-11 09:01N 37°47' W 122°17'0 0.0
2017-Aug-11 08:30N 37°47' W 122°17'0 0.0
2017-Aug-11 08:01N 37°47' W 122°17'0 0.0
2017-Aug-11 07:30N 37°47' W 122°17'0 0.0
2017-Aug-11 07:00N 37°47' W 122°17'0 0.0
2017-Aug-11 06:31N 37°47' W 122°17'0 0.0
2017-Aug-11 06:00N 37°47' W 122°17'0 0.0
2017-Aug-11 05:30N 37°47' W 122°17'0 0.0
2017-Aug-11 05:00N 37°47' W 122°17'0 0.0
2017-Aug-11 04:31N 37°47' W 122°17'0 0.0
2017-Aug-11 04:01N 37°47' W 122°17'0 0.0
2017-Aug-11 03:31N 37°47' W 122°17'0 0.0
2017-Aug-11 03:00N 37°47' W 122°17'0 0.0
2017-Aug-11 02:30N 37°47' W 122°17'0 0.0
2017-Aug-11 02:01N 37°47' W 122°17'0 0.0
2017-Aug-11 01:30N 37°47' W 122°17'  

Dump ship's entire track history